createdAt,value
2023-04-18T00:00:16.147Z,85.7429
2023-04-18T00:01:16.630Z,85.8929
2023-04-18T00:02:17.349Z,85.7446
2023-04-18T00:03:18.590Z,85.8861
2023-04-18T00:04:21.079Z,85.9159
2023-04-18T00:05:22.366Z,85.3719
2023-04-18T00:06:22.875Z,85.6468
2023-04-18T00:07:23.382Z,85.0072
2023-04-18T00:08:23.864Z,85.6975
2023-04-18T00:09:24.473Z,85.5093
2023-04-18T00:10:24.948Z,85.0790
2023-04-18T00:11:25.499Z,85.0064
2023-04-18T00:12:26.022Z,85.0090
2023-04-18T00:13:26.488Z,84.9191
2023-04-18T00:14:27.005Z,84.9151
2023-04-18T00:15:27.439Z,84.8779
2023-04-18T00:16:28.155Z,84.9478
2023-04-18T00:17:28.676Z,84.5734
2023-04-18T00:18:29.169Z,85.0075
2023-04-18T00:19:29.642Z,84.8197
2023-04-18T00:20:30.130Z,84.5148
2023-04-18T00:21:30.568Z,84.7211
2023-04-18T00:22:31.037Z,85.2075
2023-04-18T00:23:31.659Z,84.9893
2023-04-18T00:24:32.148Z,85.2044
2023-04-18T00:25:32.696Z,84.6639
2023-04-18T00:26:33.120Z,84.7218
2023-04-18T00:27:33.669Z,84.9815
2023-04-18T00:28:34.209Z,84.8444
2023-04-18T00:29:35.728Z,84.9388
2023-04-18T00:30:36.319Z,84.4245
2023-04-18T00:31:36.824Z,84.9263
2023-04-18T00:32:37.344Z,84.7194
2023-04-18T00:33:37.842Z,84.6781
2023-04-18T00:34:38.332Z,85.2290
2023-04-18T00:35:38.813Z,85.4127
2023-04-18T00:36:39.291Z,85.2046
2023-04-18T00:37:39.746Z,84.6505
2023-04-18T00:38:40.309Z,85.4991
2023-04-18T00:39:40.879Z,84.7384
2023-04-18T00:40:41.443Z,84.7576
2023-04-18T00:41:41.967Z,85.4815
2023-04-18T00:42:42.591Z,84.8637
2023-04-18T00:43:43.280Z,85.0359
2023-04-18T00:44:43.810Z,85.2178
2023-04-18T00:45:44.286Z,84.5668
2023-04-18T00:46:44.803Z,84.7960
2023-04-18T00:47:45.398Z,84.5570
2023-04-18T00:48:45.886Z,84.3535
2023-04-18T00:49:46.373Z,84.7370
2023-04-18T00:50:46.852Z,84.8016
2023-04-18T00:51:47.413Z,84.9811
2023-04-18T00:52:47.940Z,85.3223
2023-04-18T00:53:48.575Z,85.6554
2023-04-18T00:54:49.242Z,85.2836
2023-04-18T00:55:49.744Z,85.1928
2023-04-18T00:56:50.207Z,84.9279
2023-04-18T00:57:50.754Z,85.1580
2023-04-18T00:58:51.196Z,84.9885
2023-04-18T00:59:51.693Z,84.8090
2023-04-18T01:00:52.164Z,84.6646
2023-04-18T01:01:52.741Z,84.9843
2023-04-18T01:02:54.054Z,85.0494
2023-04-18T01:03:55.088Z,84.9376
2023-04-18T01:04:55.805Z,84.7477
2023-04-18T01:05:56.413Z,85.0676
2023-04-18T01:06:56.891Z,85.3758
2023-04-18T01:07:57.340Z,84.7711
2023-04-18T01:08:57.813Z,85.1690
2023-04-18T01:09:58.275Z,84.7268
2023-04-18T01:10:58.705Z,85.7010
2023-04-18T01:11:59.219Z,85.5102
2023-04-18T01:12:59.652Z,84.9322
2023-04-18T01:14:00.113Z,84.9638
2023-04-18T01:15:00.636Z,85.1356
2023-04-18T01:16:01.134Z,85.5329
2023-04-18T01:17:01.587Z,85.2081
2023-04-18T01:18:02.113Z,85.1963
2023-04-18T01:19:02.660Z,84.1716
2023-04-18T01:20:03.209Z,84.4204
2023-04-18T01:21:03.665Z,84.9014
2023-04-18T01:22:04.217Z,84.8186
2023-04-18T01:23:04.652Z,85.5534
2023-04-18T01:24:05.144Z,85.2304
2023-04-18T01:25:05.608Z,85.1732
2023-04-18T01:26:06.025Z,85.3354
2023-04-18T01:27:06.510Z,85.2215
2023-04-18T01:28:06.985Z,85.1707
2023-04-18T01:29:07.438Z,84.9700
2023-04-18T01:30:07.914Z,84.9082
2023-04-18T01:31:08.395Z,85.3635
2023-04-18T01:32:08.850Z,84.7385
2023-04-18T01:33:09.341Z,84.8090
2023-04-18T01:34:09.850Z,84.8940
2023-04-18T01:35:10.324Z,85.0153
2023-04-18T01:36:10.831Z,84.9155
2023-04-18T01:37:11.396Z,84.6418
2023-04-18T01:38:11.881Z,85.1149
2023-04-18T01:39:12.443Z,85.3927
2023-04-18T01:40:12.904Z,85.4419
2023-04-18T01:41:13.426Z,85.4572
2023-04-18T01:42:13.894Z,85.8670
2023-04-18T01:43:14.344Z,85.8241
2023-04-18T01:44:15.299Z,85.1223
2023-04-18T01:45:16.118Z,84.5596
2023-04-18T01:46:16.617Z,84.9464
2023-04-18T01:47:17.083Z,85.2819
2023-04-18T01:48:17.512Z,85.5608
2023-04-18T01:49:18.011Z,84.9254
2023-04-18T01:50:18.556Z,85.0007
2023-04-18T01:51:19.118Z,84.8589
2023-04-18T01:52:19.628Z,84.6913
2023-04-18T01:53:20.059Z,84.9062
2023-04-18T01:54:20.597Z,85.1900
2023-04-18T01:55:21.112Z,84.7426
2023-04-18T01:56:21.768Z,85.0608
2023-04-18T01:57:22.549Z,85.0387
2023-04-18T01:58:23.344Z,85.3455
2023-04-18T01:59:23.829Z,85.6983
2023-04-18T02:00:24.384Z,85.2921
2023-04-18T02:01:25.039Z,85.6277
2023-04-18T02:02:25.849Z,85.3178
2023-04-18T02:03:26.868Z,85.3838
2023-04-18T02:04:27.743Z,84.7340
2023-04-18T02:05:28.278Z,84.9489
2023-04-18T02:06:28.804Z,85.0434
2023-04-18T02:07:29.361Z,85.1686
2023-04-18T02:08:29.862Z,85.1972
2023-04-18T02:09:30.470Z,85.7417
2023-04-18T02:10:30.961Z,86.0469
2023-04-18T02:11:31.560Z,85.3274
2023-04-18T02:12:32.135Z,85.7509
2023-04-18T02:13:32.715Z,86.0316
2023-04-18T02:14:33.245Z,86.1945
2023-04-18T02:15:33.833Z,85.9358
2023-04-18T02:16:34.425Z,85.9956
2023-04-18T02:17:35.100Z,85.4690
2023-04-18T02:18:35.745Z,85.6350
2023-04-18T02:19:36.275Z,85.4231
2023-04-18T02:20:36.806Z,85.2624
2023-04-18T02:21:37.304Z,85.4295
2023-04-18T02:22:37.886Z,85.6848
2023-04-18T02:23:38.403Z,85.7114
2023-04-18T02:24:38.969Z,85.6744
2023-04-18T02:25:39.500Z,85.9836
2023-04-18T02:26:40.073Z,86.1852
2023-04-18T02:27:40.621Z,85.8730
2023-04-18T02:28:41.146Z,85.9594
2023-04-18T02:29:41.679Z,85.9463
2023-04-18T02:30:42.187Z,85.9843
2023-04-18T02:31:42.864Z,86.1184
2023-04-18T02:32:43.426Z,85.9467
2023-04-18T02:33:43.949Z,85.4539
2023-04-18T02:34:44.522Z,86.0651
2023-04-18T02:35:45.094Z,86.2697
2023-04-18T02:36:45.673Z,85.8744
2023-04-18T02:37:46.262Z,86.3093
2023-04-18T02:38:47.076Z,85.8251
2023-04-18T02:39:47.655Z,85.5768
2023-04-18T02:40:48.208Z,85.7015
2023-04-18T02:41:48.789Z,86.2658
2023-04-18T02:42:49.299Z,86.4869
2023-04-18T02:43:49.848Z,86.0054
2023-04-18T02:44:50.344Z,86.0807
2023-04-18T02:45:50.976Z,86.3783
2023-04-18T02:46:51.624Z,86.1644
2023-04-18T02:47:57.011Z,86.0718
2023-04-18T02:48:52.771Z,86.2167
2023-04-18T02:49:53.337Z,86.0457
2023-04-18T02:50:53.927Z,86.5057
2023-04-18T02:51:54.524Z,86.0434
2023-04-18T02:52:55.082Z,86.3118
2023-04-18T02:53:55.636Z,86.7554
2023-04-18T02:54:56.212Z,86.3866
2023-04-18T02:55:56.735Z,86.1909
2023-04-18T02:56:57.423Z,86.4510
2023-04-18T02:57:57.949Z,85.9720
2023-04-18T02:58:58.495Z,85.9972
2023-04-18T02:59:59.035Z,85.8083
2023-04-18T03:00:59.688Z,86.1795
2023-04-18T03:02:00.333Z,85.9306
2023-04-18T03:03:00.967Z,86.1655
2023-04-18T03:04:01.462Z,86.4066
2023-04-18T03:05:02.020Z,85.8533
2023-04-18T03:06:02.565Z,85.7364
2023-04-18T03:07:03.154Z,85.9450
2023-04-18T03:08:03.831Z,86.3837
2023-04-18T03:09:04.636Z,86.0341
2023-04-18T03:10:05.205Z,86.2003
2023-04-18T03:11:05.682Z,86.4189
2023-04-18T03:12:06.401Z,85.8329
2023-04-18T03:13:06.907Z,86.0819
2023-04-18T03:14:07.422Z,85.6845
2023-04-18T03:15:08.014Z,85.6589
2023-04-18T03:16:08.706Z,86.0186
2023-04-18T03:17:09.219Z,86.1546
2023-04-18T03:18:09.774Z,86.5584
2023-04-18T03:19:10.351Z,86.7218
2023-04-18T03:20:10.875Z,86.1740
2023-04-18T03:21:11.467Z,86.2499
2023-04-18T03:22:12.022Z,86.0605
2023-04-18T03:23:12.561Z,85.7660
2023-04-18T03:24:14.353Z,85.8619
2023-04-18T03:25:15.142Z,86.0125
2023-04-18T03:26:15.676Z,85.8407
2023-04-18T03:27:16.216Z,86.2909
2023-04-18T03:28:16.785Z,86.6109
2023-04-18T03:29:17.380Z,86.2502
2023-04-18T03:30:17.889Z,86.2467
2023-04-18T03:31:18.583Z,86.5700
2023-04-18T03:32:19.320Z,86.2916
2023-04-18T03:33:19.973Z,86.0406
2023-04-18T03:34:20.471Z,86.2943
2023-04-18T03:35:20.992Z,86.2447
2023-04-18T03:36:21.548Z,86.4067
2023-04-18T03:37:22.123Z,86.7889
2023-04-18T03:38:22.896Z,86.5230
2023-04-18T03:39:23.440Z,86.0297
2023-04-18T03:40:24.012Z,85.7816
2023-04-18T03:41:24.537Z,85.9599
2023-04-18T03:42:25.192Z,86.1801
2023-04-18T03:43:25.724Z,86.2793
2023-04-18T03:44:26.306Z,86.4767
2023-04-18T03:45:26.832Z,86.6448
2023-04-18T03:46:27.398Z,85.7488
2023-04-18T03:47:27.940Z,85.7477
2023-04-18T03:48:28.461Z,85.8766
2023-04-18T03:49:28.983Z,86.0856
2023-04-18T03:50:29.568Z,86.0793
2023-04-18T03:51:30.117Z,85.6776
2023-04-18T03:52:30.713Z,86.4987
2023-04-18T03:53:31.221Z,86.5533
2023-04-18T03:54:31.721Z,86.0306
2023-04-18T03:55:32.280Z,85.8380
2023-04-18T03:56:32.818Z,86.4256
2023-04-18T03:57:33.440Z,86.1382
2023-04-18T03:58:33.971Z,85.6394
2023-04-18T03:59:34.512Z,86.0633
2023-04-18T04:00:35.068Z,85.7359
2023-04-18T04:01:35.695Z,85.9129
2023-04-18T04:02:36.703Z,85.6479
2023-04-18T04:03:37.781Z,86.2942
2023-04-18T04:04:38.638Z,86.2456
2023-04-18T04:05:39.174Z,85.7620
2023-04-18T04:06:39.756Z,85.5807
2023-04-18T04:07:40.385Z,86.0393
2023-04-18T04:08:40.901Z,85.8680
2023-04-18T04:09:41.485Z,85.3994
2023-04-18T04:10:41.992Z,85.5067
2023-04-18T04:11:42.585Z,85.6724
2023-04-18T04:12:43.140Z,85.5740
2023-04-18T04:13:43.711Z,85.8379
2023-04-18T04:14:44.332Z,86.0501
2023-04-18T04:15:44.960Z,85.8946
2023-04-18T04:16:45.607Z,85.9754
2023-04-18T04:17:46.483Z,85.6324
2023-04-18T04:18:47.032Z,86.0607
2023-04-18T04:19:47.574Z,85.7745
2023-04-18T04:20:48.281Z,85.6172
2023-04-18T04:21:48.831Z,85.4880
2023-04-18T04:22:49.395Z,85.6637
2023-04-18T04:23:50.079Z,85.6855
2023-04-18T04:24:50.689Z,85.6382
2023-04-18T04:25:51.274Z,85.7181
2023-04-18T04:26:51.917Z,85.3408
2023-04-18T04:27:52.481Z,86.2624
2023-04-18T04:28:53.079Z,85.7876
2023-04-18T04:29:53.594Z,85.8997
2023-04-18T04:30:54.154Z,85.9702
2023-04-18T04:31:54.802Z,85.8727
2023-04-18T04:32:55.470Z,85.6608
2023-04-18T04:33:56.083Z,85.8950
2023-04-18T04:34:56.690Z,85.6505
2023-04-18T04:35:57.323Z,85.6250
2023-04-18T04:36:57.880Z,86.0125
2023-04-18T04:37:58.475Z,86.3308
2023-04-18T04:38:59.020Z,86.3205
2023-04-18T04:39:59.588Z,86.0162
2023-04-18T04:41:00.111Z,85.8325
2023-04-18T04:42:01.081Z,85.8546
2023-04-18T04:43:01.676Z,85.6579
2023-04-18T04:44:02.287Z,85.6203
2023-04-18T04:45:02.895Z,85.3775
2023-04-18T04:46:03.491Z,85.7747
2023-04-18T04:47:04.149Z,85.9411
2023-04-18T04:48:04.766Z,85.5719
2023-04-18T04:49:05.298Z,86.1757
2023-04-18T04:50:05.853Z,86.3100
2023-04-18T04:51:06.428Z,86.5850
2023-04-18T04:52:06.943Z,86.1086
2023-04-18T04:53:07.555Z,85.8979
2023-04-18T04:54:08.084Z,85.9528
2023-04-18T04:55:08.670Z,86.0666
2023-04-18T04:56:09.438Z,85.8889
2023-04-18T04:57:10.060Z,85.4478
2023-04-18T04:58:10.578Z,85.7445
2023-04-18T04:59:11.096Z,86.4484
2023-04-18T05:00:11.614Z,86.0950
2023-04-18T05:01:12.246Z,86.3736
2023-04-18T05:02:13.012Z,86.0373
2023-04-18T05:03:14.072Z,86.2437
2023-04-18T05:04:16.079Z,86.4527
2023-04-18T05:05:17.093Z,86.2566
2023-04-18T05:06:17.693Z,86.1703
2023-04-18T05:07:18.284Z,86.5360
2023-04-18T05:08:18.904Z,85.9746
2023-04-18T05:09:19.511Z,85.7580
2023-04-18T05:10:20.069Z,85.7915
2023-04-18T05:11:20.722Z,86.1295
2023-04-18T05:12:21.234Z,85.8509
2023-04-18T05:13:21.822Z,85.9187
2023-04-18T05:14:22.412Z,86.2986
2023-04-18T05:15:23.055Z,86.0838
2023-04-18T05:16:23.788Z,86.5882
2023-04-18T05:17:24.392Z,86.1521
2023-04-18T05:18:25.047Z,86.2988
2023-04-18T05:19:25.627Z,85.8318
2023-04-18T05:20:26.395Z,85.8338
2023-04-18T05:21:26.929Z,85.7668
2023-04-18T05:22:27.540Z,86.0363
2023-04-18T05:23:28.128Z,86.5687
2023-04-18T05:24:28.719Z,86.2844
2023-04-18T05:25:29.296Z,86.2558
2023-04-18T05:26:29.826Z,85.9311
2023-04-18T05:27:30.386Z,85.4101
2023-04-18T05:28:31.061Z,85.8546
2023-04-18T05:29:31.641Z,86.0949
2023-04-18T05:30:32.334Z,86.0525
2023-04-18T05:31:32.964Z,86.1488
2023-04-18T05:32:33.538Z,85.7797
2023-04-18T05:33:34.064Z,86.2378
2023-04-18T05:34:38.940Z,85.9464
2023-04-18T05:35:35.027Z,85.5819
2023-04-18T05:36:35.620Z,85.9740
2023-04-18T05:37:36.259Z,85.5529
2023-04-18T05:38:36.895Z,85.8758
2023-04-18T05:39:37.483Z,85.9348
2023-04-18T05:40:38.162Z,86.0741
2023-04-18T05:41:38.702Z,85.4520
2023-04-18T05:42:39.318Z,85.4485
2023-04-18T05:43:40.180Z,85.5658
2023-04-18T05:44:41.572Z,85.9722
2023-04-18T05:45:42.150Z,85.5036
2023-04-18T05:46:42.939Z,85.7881
2023-04-18T05:47:43.540Z,85.8372
2023-04-18T05:48:44.211Z,85.9079
2023-04-18T05:49:44.805Z,85.6970
2023-04-18T05:50:45.443Z,85.4687
2023-04-18T05:51:46.078Z,85.5145
2023-04-18T05:52:46.623Z,85.9218
2023-04-18T05:53:47.211Z,85.9402
2023-04-18T05:54:47.783Z,85.5592
2023-04-18T05:55:48.344Z,85.5803
2023-04-18T05:56:49.085Z,85.7984
2023-04-18T05:57:49.923Z,85.4242
2023-04-18T05:58:50.540Z,85.8503
2023-04-18T05:59:51.115Z,85.7566
2023-04-18T06:00:51.684Z,85.3304
2023-04-18T06:01:52.451Z,85.4599
2023-04-18T06:02:53.689Z,85.2230
2023-04-18T06:03:54.999Z,85.6189
2023-04-18T06:04:56.382Z,85.5312
2023-04-18T06:05:57.453Z,85.4744
2023-04-18T06:06:58.388Z,85.2492
2023-04-18T06:07:58.984Z,85.7121
2023-04-18T06:08:59.614Z,85.5923
2023-04-18T06:10:00.120Z,85.2113
2023-04-18T06:11:00.647Z,85.3485
2023-04-18T06:12:01.195Z,85.1270
2023-04-18T06:13:01.772Z,85.3944
2023-04-18T06:14:02.480Z,85.2766
2023-04-18T06:15:03.107Z,85.3300
2023-04-18T06:16:03.782Z,85.7964
2023-04-18T06:17:04.326Z,85.2105
2023-04-18T06:18:05.061Z,84.8897
2023-04-18T06:19:05.650Z,85.0708
2023-04-18T06:20:06.216Z,84.9335
2023-04-18T06:21:06.769Z,85.0491
2023-04-18T06:22:07.297Z,85.0545
2023-04-18T06:23:07.838Z,84.6920
2023-04-18T06:24:08.402Z,84.3258
2023-04-18T06:25:08.996Z,84.6333
2023-04-18T06:26:09.525Z,85.0767
2023-04-18T06:27:30.231Z,84.6698
2023-04-18T06:28:10.546Z,84.8085
2023-04-18T06:29:11.175Z,84.4970
2023-04-18T06:30:11.732Z,84.7449
2023-04-18T06:31:12.549Z,85.1455
2023-04-18T06:32:13.080Z,85.0764
2023-04-18T06:33:13.655Z,84.5987
2023-04-18T06:34:14.832Z,84.3703
2023-04-18T06:35:15.630Z,84.5314
2023-04-18T06:36:16.174Z,84.6574
2023-04-18T06:37:16.704Z,84.3722
2023-04-18T06:38:17.306Z,84.5601
2023-04-18T06:39:17.925Z,84.6075
2023-04-18T06:40:18.521Z,84.6375
2023-04-18T06:41:19.067Z,84.5760
2023-04-18T06:42:22.927Z,84.5936
2023-04-18T06:43:21.228Z,84.4531
2023-04-18T06:44:21.792Z,84.5588
2023-04-18T06:45:22.343Z,85.0887
2023-04-18T06:46:23.383Z,84.9519
2023-04-18T06:47:23.978Z,84.8738
2023-04-18T06:48:24.507Z,84.6799
2023-04-18T06:49:26.992Z,84.2659
2023-04-18T06:50:25.172Z,84.0888
2023-04-18T06:51:25.722Z,84.1125
2023-04-18T06:52:26.235Z,84.4815
2023-04-18T06:53:26.754Z,84.5563
2023-04-18T06:54:27.409Z,84.8148
2023-04-18T06:55:27.981Z,84.3105
2023-04-18T06:56:28.497Z,83.9922
2023-04-18T06:57:29.010Z,83.8547
2023-04-18T06:58:29.566Z,84.1189
2023-04-18T06:59:30.451Z,84.1374
2023-04-18T07:00:30.980Z,84.4170
2023-04-18T07:01:31.695Z,84.0361
2023-04-18T07:02:32.666Z,84.0438
2023-04-18T07:03:34.416Z,84.4743
2023-04-18T07:04:35.102Z,84.5906
2023-04-18T07:05:35.713Z,84.8134
2023-04-18T07:06:36.350Z,84.3078
2023-04-18T07:07:36.914Z,84.1104
2023-04-18T07:08:37.632Z,84.0109
2023-04-18T07:09:38.266Z,83.8113
2023-04-18T07:10:38.829Z,84.0164
2023-04-18T07:11:39.408Z,83.9448
2023-04-18T07:12:41.015Z,83.8090
2023-04-18T07:13:41.621Z,84.1382
2023-04-18T07:14:42.245Z,83.8574
2023-04-18T07:15:42.786Z,83.6694
2023-04-18T07:16:43.464Z,83.4939
2023-04-18T07:17:44.036Z,83.5197
2023-04-18T07:18:44.635Z,83.4694
2023-04-18T07:19:45.250Z,83.5054
2023-04-18T07:20:45.816Z,83.4650
2023-04-18T07:21:46.536Z,83.2998
2023-04-18T07:22:47.133Z,83.4256
2023-04-18T07:23:47.729Z,83.2007
2023-04-18T07:24:48.352Z,82.7651
2023-04-18T07:25:48.952Z,82.9282
2023-04-18T07:26:49.490Z,82.7225
2023-04-18T07:27:50.058Z,82.7194
2023-04-18T07:28:50.641Z,82.5841
2023-04-18T07:29:51.238Z,82.8508
2023-04-18T07:30:51.882Z,82.6502
2023-04-18T07:31:52.453Z,82.8975
2023-04-18T07:32:53.183Z,82.7915
2023-04-18T07:33:53.704Z,82.4734
2023-04-18T07:34:54.302Z,82.1852
2023-04-18T07:35:54.847Z,81.9236
2023-04-18T07:36:55.424Z,81.7936
2023-04-18T07:37:56.001Z,81.9633
2023-04-18T07:38:56.557Z,82.0864
2023-04-18T07:39:57.102Z,82.0073
2023-04-18T07:40:57.677Z,82.0244
2023-04-18T07:41:58.208Z,82.0752
2023-04-18T07:42:58.768Z,82.0224
2023-04-18T07:43:59.376Z,82.3106
2023-04-18T07:44:59.983Z,82.1558
2023-04-18T07:46:00.608Z,82.8746
2023-04-18T07:47:01.122Z,82.6047
2023-04-18T07:48:01.813Z,82.8334
2023-04-18T07:49:02.537Z,82.1772
2023-04-18T07:50:03.085Z,81.8811
2023-04-18T07:51:03.567Z,81.9098
2023-04-18T07:52:04.151Z,81.7270
2023-04-18T07:53:04.677Z,81.2490
2023-04-18T07:54:05.222Z,81.2725
2023-04-18T07:55:05.837Z,81.4990
2023-04-18T07:56:06.398Z,80.7429
2023-04-18T07:57:06.975Z,80.3320
2023-04-18T07:58:07.492Z,80.3646
2023-04-18T07:59:08.090Z,80.0466
2023-04-18T08:00:08.644Z,79.9210
2023-04-18T08:01:09.235Z,80.0090
2023-04-18T08:02:09.860Z,80.1306
2023-04-18T08:03:10.663Z,79.9291
2023-04-18T08:04:12.027Z,80.2161
2023-04-18T08:05:12.930Z,79.4489
2023-04-18T08:06:13.454Z,78.8608
2023-04-18T08:07:13.979Z,78.8591
2023-04-18T08:08:14.536Z,79.3419
2023-04-18T08:09:16.021Z,78.6733
2023-04-18T08:10:16.809Z,78.8001
2023-04-18T08:11:17.367Z,78.7469
2023-04-18T08:12:17.891Z,79.0543
2023-04-18T08:13:18.417Z,78.8637
2023-04-18T08:14:19.025Z,78.9165
2023-04-18T08:15:19.508Z,78.2775
2023-04-18T08:16:20.091Z,78.8424
2023-04-18T08:17:20.707Z,78.2821
2023-04-18T08:18:21.251Z,77.3469
2023-04-18T08:19:21.753Z,76.8406
2023-04-18T08:20:22.366Z,76.7864
2023-04-18T08:21:23.046Z,76.7165
2023-04-18T08:22:23.551Z,76.3619
2023-04-18T08:23:24.040Z,76.5675
2023-04-18T08:24:24.543Z,76.2662
2023-04-18T08:25:25.074Z,76.0436
2023-04-18T08:26:25.582Z,76.9588
2023-04-18T08:27:26.116Z,77.0058
2023-04-18T08:28:26.591Z,77.4066
2023-04-18T08:29:27.126Z,77.4640
2023-04-18T08:30:27.676Z,77.5535
2023-04-18T08:31:28.314Z,77.8061
2023-04-18T08:32:28.963Z,78.0614
2023-04-18T08:33:29.456Z,78.7809
2023-04-18T08:34:30.056Z,79.0335
2023-04-18T08:35:30.692Z,78.9349
2023-04-18T08:36:31.276Z,78.9319
2023-04-18T08:37:31.806Z,79.0292
2023-04-18T08:38:32.335Z,78.8880
2023-04-18T08:39:32.890Z,79.2015
2023-04-18T08:40:33.477Z,79.3349
2023-04-18T08:41:34.007Z,79.0869
2023-04-18T08:42:34.536Z,79.2618
2023-04-18T08:43:35.029Z,79.0556
2023-04-18T08:44:35.535Z,79.1283
2023-04-18T08:45:36.343Z,78.7097
2023-04-18T08:46:36.833Z,78.2505
2023-04-18T08:47:37.480Z,78.0514
2023-04-18T08:48:38.062Z,78.2196
2023-04-18T08:49:38.576Z,78.6847
2023-04-18T08:50:39.160Z,78.6046
2023-04-18T08:51:39.695Z,78.6015
2023-04-18T08:52:40.253Z,78.2419
2023-04-18T08:53:40.805Z,77.9136
2023-04-18T08:54:41.295Z,77.6566
2023-04-18T08:55:41.836Z,77.1187
2023-04-18T08:56:42.356Z,76.9444
2023-04-18T08:57:42.886Z,76.6788
2023-04-18T08:58:43.441Z,76.8145
2023-04-18T08:59:47.180Z,77.0804
2023-04-18T09:00:44.985Z,77.1385
2023-04-18T09:01:45.613Z,77.2726
2023-04-18T09:02:46.293Z,77.6809
2023-04-18T09:03:46.902Z,77.2282
2023-04-18T09:04:47.477Z,76.9769
2023-04-18T09:05:48.028Z,76.9736
2023-04-18T09:06:48.540Z,76.7545
2023-04-18T09:07:49.080Z,76.8067
2023-04-18T09:08:49.626Z,76.6096
2023-04-18T09:09:50.212Z,76.4681
2023-04-18T09:10:50.814Z,76.0293
2023-04-18T09:11:51.359Z,75.4446
2023-04-18T09:12:51.854Z,75.1776
2023-04-18T09:13:52.412Z,74.9920
2023-04-18T09:14:52.968Z,74.8619
2023-04-18T09:15:53.533Z,74.6040
2023-04-18T09:16:54.292Z,74.4678
2023-04-18T09:17:54.831Z,74.6734
2023-04-18T09:18:55.326Z,74.6421
2023-04-18T09:19:55.843Z,75.1294
2023-04-18T09:20:56.409Z,76.0480
2023-04-18T09:21:56.945Z,76.6546
2023-04-18T09:22:57.534Z,77.0209
2023-04-18T09:23:58.044Z,76.7740
2023-04-18T09:24:58.600Z,76.7611
2023-04-18T09:25:59.154Z,76.8734
2023-04-18T09:26:59.677Z,76.6836
2023-04-18T09:28:00.298Z,76.4934
2023-04-18T09:29:00.891Z,76.3444
2023-04-18T09:30:01.420Z,75.9764
2023-04-18T09:31:02.192Z,75.6564
2023-04-18T09:32:02.723Z,75.9307
2023-04-18T09:33:04.227Z,75.4446
2023-04-18T09:34:04.765Z,75.2472
2023-04-18T09:35:05.536Z,74.7295
2023-04-18T09:36:07.137Z,74.6985
2023-04-18T09:37:07.806Z,74.8327
2023-04-18T09:38:08.396Z,74.6519
2023-04-18T09:39:08.959Z,74.9333
2023-04-18T09:40:09.658Z,75.4105
2023-04-18T09:41:10.284Z,75.6087
2023-04-18T09:42:10.856Z,75.8560
2023-04-18T09:43:11.343Z,75.7891
2023-04-18T09:44:15.824Z,75.7213
2023-04-18T09:45:14.209Z,74.8926
2023-04-18T09:46:14.841Z,74.6234
2023-04-18T09:47:16.343Z,74.3456
2023-04-18T09:48:16.813Z,74.0333
2023-04-18T09:49:18.657Z,73.9317
2023-04-18T09:50:19.336Z,74.6809
2023-04-18T09:51:19.936Z,75.3368
2023-04-18T09:52:20.453Z,75.6811
2023-04-18T09:53:21.645Z,75.6102
2023-04-18T09:54:22.177Z,75.4971
2023-04-18T09:55:22.898Z,75.6940
2023-04-18T09:56:23.680Z,76.0744
2023-04-18T09:57:24.274Z,75.8970
2023-04-18T09:58:24.771Z,75.5568
2023-04-18T09:59:25.356Z,75.4827
2023-04-18T10:00:25.899Z,74.8206
2023-04-18T10:01:26.574Z,73.9584
2023-04-18T10:02:27.409Z,73.5767
2023-04-18T10:03:28.182Z,73.5490
2023-04-18T10:04:28.884Z,73.3386
2023-04-18T10:05:29.537Z,72.9433
2023-04-18T10:06:30.118Z,72.5419
2023-04-18T10:07:30.613Z,72.6418
2023-04-18T10:08:31.173Z,72.4825
2023-04-18T10:09:31.736Z,71.5666
2023-04-18T10:10:32.412Z,71.3436
2023-04-18T10:11:32.942Z,71.4488
2023-04-18T10:12:33.445Z,71.4557
2023-04-18T10:13:33.963Z,71.7776
2023-04-18T10:14:34.482Z,71.9818
2023-04-18T10:15:35.096Z,72.1249
2023-04-18T10:16:36.860Z,71.8484
2023-04-18T10:17:37.433Z,70.5946
2023-04-18T10:18:38.205Z,70.5541
2023-04-18T10:19:38.751Z,70.8467
2023-04-18T10:20:39.228Z,71.2628
2023-04-18T10:21:39.789Z,71.1576
2023-04-18T10:22:40.264Z,71.5268
2023-04-18T10:23:40.904Z,70.7774
2023-04-18T10:24:41.412Z,69.5249
2023-04-18T10:25:43.421Z,69.4340
2023-04-18T10:27:19.174Z,69.1197
2023-04-18T10:28:20.123Z,69.0109
2023-04-18T10:29:21.043Z,69.0389
2023-04-18T10:30:22.180Z,69.3633
2023-04-18T10:31:23.326Z,70.4397
2023-04-18T10:32:24.403Z,71.5900
2023-04-18T10:33:32.388Z,71.6858
2023-04-18T10:34:27.169Z,72.1500
2023-04-18T10:35:28.185Z,72.6497
2023-04-18T10:36:29.205Z,73.2198
2023-04-18T10:37:30.185Z,73.1751
2023-04-18T10:38:31.270Z,73.5736
2023-04-18T10:39:32.215Z,73.6282
2023-04-18T10:40:33.237Z,73.5251
2023-04-18T10:41:34.169Z,73.1846
2023-04-18T10:42:35.156Z,72.6470
2023-04-18T10:43:36.172Z,72.1626
2023-04-18T10:44:37.136Z,72.2061
2023-04-18T10:45:38.120Z,72.0020
2023-04-18T10:46:39.179Z,71.5220
2023-04-18T10:47:40.636Z,71.2784
2023-04-18T10:48:41.654Z,71.2580
2023-04-18T10:49:42.620Z,71.5647
2023-04-18T10:50:43.576Z,70.7677
2023-04-18T10:51:44.530Z,70.4485
2023-04-18T10:52:45.467Z,70.6957
2023-04-18T10:53:46.418Z,70.2866
2023-04-18T10:54:47.291Z,71.2521
2023-04-18T10:55:48.208Z,71.6172
2023-04-18T10:56:49.130Z,71.4795
2023-04-18T10:57:50.096Z,71.6053
2023-04-18T10:58:51.091Z,71.7745
2023-04-18T10:59:52.100Z,71.4908
2023-04-18T11:00:53.169Z,70.8989
2023-04-18T11:01:54.096Z,70.7758
2023-04-18T11:02:55.424Z,70.0433
2023-04-18T11:03:56.688Z,69.6652
2023-04-18T11:04:57.646Z,70.0586
2023-04-18T11:05:59.016Z,69.5833
2023-04-18T11:07:00.086Z,69.4092
2023-04-18T11:08:01.252Z,69.3411
2023-04-18T11:09:02.625Z,69.1482
2023-04-18T11:10:03.554Z,69.9779
2023-04-18T11:11:04.492Z,70.6883
2023-04-18T11:12:05.432Z,70.8624
2023-04-18T11:13:06.376Z,70.6280
2023-04-18T11:14:07.541Z,70.4433
2023-04-18T11:15:08.543Z,71.1203
2023-04-18T11:16:09.459Z,70.9829
2023-04-18T11:17:10.384Z,70.2752
2023-04-18T11:18:11.350Z,69.9437
2023-04-18T11:19:12.224Z,69.6030
2023-04-18T11:20:13.203Z,69.4083
2023-04-18T11:21:14.110Z,68.9263
2023-04-18T11:22:14.998Z,68.7076
2023-04-18T11:23:15.938Z,68.5167
2023-04-18T11:24:16.887Z,69.2120
2023-04-18T11:25:17.827Z,68.9992
2023-04-18T11:26:18.697Z,68.9313
2023-04-18T11:27:19.604Z,69.4820
2023-04-18T11:28:20.498Z,70.1397
2023-04-18T11:29:21.399Z,70.5195
2023-04-18T11:30:22.316Z,70.4606
2023-04-18T11:31:23.327Z,70.4423
2023-04-18T11:32:24.580Z,70.4222
2023-04-18T11:33:25.519Z,70.2055
2023-04-18T11:34:26.479Z,70.0779
2023-04-18T11:35:27.420Z,69.8837
2023-04-18T11:36:28.349Z,70.0339
2023-04-18T11:37:29.263Z,70.1360
2023-04-18T11:38:30.176Z,69.6201
2023-04-18T11:39:31.096Z,69.1192
2023-04-18T11:40:32.035Z,69.1094
2023-04-18T11:41:32.919Z,69.6644
2023-04-18T11:42:33.817Z,69.9466
2023-04-18T11:43:34.749Z,68.6918
2023-04-18T11:44:36.798Z,66.6168
2023-04-18T11:45:37.815Z,66.4658
2023-04-18T11:46:38.938Z,66.5722
2023-04-18T11:47:39.909Z,66.2629
2023-04-18T11:48:40.788Z,65.7076
2023-04-18T11:49:41.660Z,62.5277
2023-04-18T11:50:42.526Z,60.4492
2023-04-18T11:51:43.359Z,60.1389
2023-04-18T11:52:44.211Z,60.0084
2023-04-18T11:53:45.089Z,59.6130
2023-04-18T11:54:45.897Z,60.1186
2023-04-18T11:55:46.745Z,57.9132
2023-04-18T11:56:47.535Z,57.0509
2023-04-18T11:57:48.375Z,56.1673
2023-04-18T11:58:49.278Z,57.4867
2023-04-18T11:59:50.128Z,56.8950
2023-04-18T12:00:50.970Z,58.8811
2023-04-18T12:01:53.638Z,61.5002
2023-04-18T12:02:52.550Z,62.7941
2023-04-18T12:03:54.047Z,63.5283
2023-04-18T12:04:56.414Z,63.4531
2023-04-18T12:05:55.706Z,62.8446
2023-04-18T12:06:56.760Z,61.6047
2023-04-18T12:07:57.614Z,61.7866
2023-04-18T12:08:58.461Z,60.5005
2023-04-18T12:09:59.253Z,60.0140
2023-04-18T12:11:00.125Z,57.1226
2023-04-18T12:12:00.980Z,57.0805
2023-04-18T12:13:01.755Z,59.0689
2023-04-18T12:14:04.507Z,60.0584